Time;durP1;ratioP1;P1;durP2;ratioP2;P2;SDS_P1;SDS_P2;PMS_P1;PMS_P2;Temp;Humidity;BMP_temperature;BMP_pressure;BME280_temperature;BME280_humidity;BME280_pressure;Samples;Min_cycle;Max_cycle;Signal;HPM_P1;HPM_P2
2022/03/10 00:00:20;;;;;;;17.67;10.13;;;;;;;3.16;48.29;102266.13;5110879;28;20041;-67
2022/03/10 00:02:47;;;;;;;16.80;9.75;;;;;;;3.14;48.38;102275.66;5111606;28;20048;-68
2022/03/10 00:05:18;;;;;;;19.80;10.85;;;;;;;3.12;48.41;102279.97;5110575;28;20042;-69
2022/03/10 00:07:46;;;;;;;21.70;11.60;;;;;;;3.09;48.79;102277.28;5111527;28;20044;-69
2022/03/10 00:10:13;;;;;;;20.75;11.50;;;;;;;3.05;48.60;102275.47;5111488;28;20051;-69
2022/03/10 00:12:52;;;;;;;18.50;10.82;;;;;;;2.98;48.87;102266.59;5109612;28;20059;-68
2022/03/10 00:15:22;;;;;;;19.60;10.30;;;;;;;2.91;48.99;102276.00;5111040;28;20181;-67
2022/03/10 00:17:51;;;;;;;20.73;10.13;;;;;;;2.81;49.38;102276.59;5113032;27;20040;-68
2022/03/10 02:24:53;;;;;;;18.38;10.05;;;;;;;1.71;52.69;102276.25;5109875;27;20047;-66
2022/03/10 02:27:23;;;;;;;20.95;10.43;;;;;;;1.72;52.99;102267.63;5114503;27;20039;-67
2022/03/10 02:29:55;;;;;;;17.10;9.65;;;;;;;1.71;52.46;102255.44;5113277;27;20036;-65
2022/03/10 02:32:22;;;;;;;24.35;10.77;;;;;;;1.74;52.83;102265.94;5112983;27;20040;-65
2022/03/10 02:34:50;;;;;;;17.77;10.75;;;;;;;1.74;52.89;102258.16;5113897;27;20874;-64
2022/03/10 02:37:19;;;;;;;18.85;10.25;;;;;;;1.76;52.75;102268.59;5113931;27;20504;-64
2022/03/10 02:39:47;;;;;;;19.27;10.65;;;;;;;1.75;52.48;102264.22;5112853;27;20044;-65
2022/03/10 02:42:14;;;;;;;20.92;11.45;;;;;;;1.74;52.74;102271.16;5113907;27;20044;-66
2022/03/10 02:44:49;;;;;;;17.70;10.25;;;;;;;1.72;52.49;102262.41;5113405;27;20497;-65
2022/03/10 02:47:18;;;;;;;18.75;10.70;;;;;;;1.71;52.49;102263.25;5105758;27;20041;-66
2022/03/10 02:49:45;;;;;;;18.10;10.00;;;;;;;1.73;53.05;102264.19;5112445;27;20036;-65
2022/03/10 02:52:12;;;;;;;17.60;10.07;;;;;;;1.76;52.99;102273.78;5113218;27;20032;-64
2022/03/10 02:54:44;;;;;;;22.08;11.35;;;;;;;1.78;53.04;102269.50;5112198;28;20060;-66
2022/03/10 02:57:12;;;;;;;20.50;11.23;;;;;;;1.77;53.18;102266.03;5112094;27;20036;-65
2022/03/10 02:59:40;;;;;;;19.75;10.55;;;;;;;1.75;52.95;102269.41;5111225;27;20041;-65
2022/03/10 03:02:07;;;;;;;21.30;10.95;;;;;;;1.73;52.89;102271.97;5110673;27;20040;-64
2022/03/10 03:04:35;;;;;;;24.77;11.43;;;;;;;1.72;52.90;102274.56;5112362;28;20086;-64
2022/03/10 03:07:03;;;;;;;19.65;11.10;;;;;;;1.70;52.85;102271.88;5111974;28;20093;-65
2022/03/10 03:09:30;;;;;;;19.70;10.85;;;;;;;1.69;52.76;102272.72;5109443;28;20776;-65
2022/03/10 03:11:57;;;;;;;23.15;11.27;;;;;;;1.69;52.64;102277.91;5112243;27;20098;-66
2022/03/10 03:14:25;;;;;;;21.42;11.00;;;;;;;1.66;52.65;102277.84;5112479;27;20134;-67
2022/03/10 03:16:56;;;;;;;21.77;11.18;;;;;;;1.63;52.56;102280.34;5112824;28;20055;-67
2022/03/10 03:19:24;;;;;;;20.83;10.93;;;;;;;1.61;52.96;102269.00;5112642;27;21190;-66
2022/03/10 03:21:52;;;;;;;21.92;11.18;;;;;;;1.57;52.95;102272.38;5112472;27;20044;-66
2022/03/10 03:24:20;;;;;;;21.08;10.73;;;;;;;1.49;53.05;102266.94;5112952;27;20056;-65
2022/03/10 03:26:48;;;;;;;22.92;11.60;;;;;;;1.38;53.24;102277.88;5111218;27;20859;-66
2022/03/10 03:29:16;;;;;;;19.52;10.68;;;;;;;1.31;53.35;102275.06;5106563;27;20036;-68
2022/03/10 03:31:43;;;;;;;23.17;11.75;;;;;;;1.27;53.32;102281.00;5111652;28;20038;-67
2022/03/10 03:34:11;;;;;;;22.27;10.95;;;;;;;1.23;53.68;102274.81;5111678;27;20047;-69
2022/03/10 03:36:40;;;;;;;18.90;10.68;;;;;;;1.17;53.75;102278.09;5111892;28;20062;-68
2022/03/10 03:39:08;;;;;;;23.10;12.27;;;;;;;1.15;53.83;102284.06;5105983;28;20484;-69
2022/03/10 03:41:35;;;;;;;20.33;11.48;;;;;;;1.11;54.21;102287.44;5112500;28;20044;-67
2022/03/10 03:44:03;;;;;;;22.75;12.10;;;;;;;1.07;53.92;102286.41;5111022;28;20509;-68
2022/03/10 03:46:33;;;;;;;22.15;11.68;;;;;;;1.02;54.16;102296.66;5110861;27;20040;-67
2022/03/10 03:49:07;;;;;;;22.02;11.82;;;;;;;0.95;53.98;102288.66;5111616;28;20046;-68
2022/03/10 03:51:35;;;;;;;20.17;10.85;;;;;;;0.86;54.29;102290.13;5112033;28;20047;-69
2022/03/10 03:54:03;;;;;;;21.50;10.73;;;;;;;0.78;54.46;102291.53;5113372;27;20036;-67
2022/03/10 03:56:30;;;;;;;21.17;11.50;;;;;;;0.69;54.93;102293.84;5111052;28;20119;-68
2022/03/10 03:58:57;;;;;;;21.30;11.43;;;;;;;0.61;55.03;102304.84;5113134;27;20032;-70
2022/03/10 04:01:24;;;;;;;20.95;11.27;;;;;;;0.55;55.41;102304.66;5113112;27;20492;-68
2022/03/10 04:03:52;;;;;;;20.00;10.63;;;;;;;0.49;55.52;102303.56;5111774;28;20509;-67
2022/03/10 04:06:19;;;;;;;19.60;11.35;;;;;;;0.41;55.42;102306.75;5111430;27;20120;-65
2022/03/10 04:08:46;;;;;;;19.17;10.93;;;;;;;0.33;55.41;102304.72;5112208;28;20044;-65
2022/03/10 04:11:17;;;;;;;22.08;11.95;;;;;;;0.24;56.27;102297.47;5112071;27;20048;-64
2022/03/10 04:13:44;;;;;;;21.90;11.32;;;;;;;-147.05;100.00;58721.66;5113222;28;20576;-65
2022/03/10 04:16:11;;;;;;;23.25;10.75;;;;;;;-147.05;100.00;58721.66;5110225;27;20044;-65
2022/03/10 04:18:40;;;;;;;21.17;11.35;;;;;;;-147.05;100.00;58721.66;5111759;27;20543;-64
2022/03/10 04:21:07;;;;;;;22.52;11.63;;;;;;;-147.05;100.00;58721.66;5111325;28;20093;-65
2022/03/10 04:23:35;;;;;;;22.25;12.13;;;;;;;-147.05;100.00;58721.66;5109647;28;20158;-64
2022/03/10 04:26:03;;;;;;;24.40;12.02;;;;;;;-147.05;100.00;58721.66;5111072;28;20106;-64
2022/03/10 04:28:30;;;;;;;23.77;11.60;;;;;;;-147.05;100.00;58721.66;5111216;27;20962;-64
2022/03/10 04:30:57;;;;;;;20.80;11.95;;;;;;;-147.05;100.00;58721.66;5110553;27;20490;-65
2022/03/10 04:33:24;;;;;;;28.35;12.32;;;;;;;-147.05;100.00;58721.66;5111988;27;20085;-64
2022/03/10 04:35:51;;;;;;;24.40;11.57;;;;;;;-147.05;100.00;58721.66;5111201;28;20086;-65
2022/03/10 04:38:19;;;;;;;24.65;11.90;;;;;;;-147.05;100.00;58721.66;5110997;27;20060;-64
2022/03/10 04:40:47;;;;;;;21.33;11.40;;;;;;;-147.05;100.00;58721.66;5111451;27;20047;-65
2022/03/10 04:43:14;;;;;;;28.00;12.15;;;;;;;-147.05;100.00;58721.66;5109949;27;20040;-64
2022/03/10 04:45:41;;;;;;;23.05;11.90;;;;;;;-147.05;100.00;58721.66;5110296;28;20556;-65
2022/03/10 04:48:09;;;;;;;22.10;11.73;;;;;;;-147.05;100.00;58721.66;5110518;28;20585;-66
2022/03/10 04:50:36;;;;;;;22.23;12.07;;;;;;;-147.05;100.00;58721.66;5110466;27;22144;-66
2022/03/10 04:53:04;;;;;;;21.77;11.45;;;;;;;-147.05;100.00;58721.66;5110654;27;20036;-65
2022/03/10 04:55:32;;;;;;;22.70;11.52;;;;;;;-147.05;100.00;58721.66;5110749;27;20146;-64
2022/03/10 04:58:00;;;;;;;24.08;12.43;;;;;;;-147.05;100.00;58721.66;5110967;27;20086;-64
2022/03/10 05:00:29;;;;;;;23.77;12.40;;;;;;;-147.05;100.00;58721.66;5107915;27;20563;-64
2022/03/10 05:02:57;;;;;;;21.95;11.93;;;;;;;-147.05;100.00;58721.66;5106048;28;20040;-67
2022/03/10 05:05:24;;;;;;;26.55;11.52;;;;;;;-147.05;100.00;58721.66;5108678;27;20048;-67
2022/03/10 05:07:52;;;;;;;25.35;11.85;;;;;;;-147.05;100.00;58721.66;5111350;27;20052;-68
2022/03/10 05:10:19;;;;;;;29.90;13.43;;;;;;;-147.05;100.00;58721.66;5106154;28;20048;-66
2022/03/10 05:12:53;;;;;;;22.15;11.52;;;;;;;-147.05;100.00;58721.66;5110931;27;20084;-66
2022/03/10 05:15:23;;;;;;;25.13;12.90;;;;;;;-147.05;100.00;58721.66;5110197;28;20063;-65
2022/03/10 05:17:51;;;;;;;25.70;13.15;;;;;;;-147.05;100.00;58721.66;5109908;27;20040;-66
2022/03/10 05:20:21;;;;;;;22.05;12.02;;;;;;;-147.05;100.00;58721.66;5109218;27;20044;-66
2022/03/10 05:22:54;;;;;;;23.58;12.40;;;;;;;-147.05;100.00;58721.66;5109610;28;20148;-67
2022/03/10 05:25:24;;;;;;;26.23;12.98;;;;;;;-147.05;100.00;58721.66;5110451;28;20102;-67
2022/03/10 05:27:52;;;;;;;27.02;12.40;;;;;;;-147.05;100.00;58721.66;5110213;27;20092;-67
2022/03/10 05:30:20;;;;;;;28.40;12.95;;;;;;;-147.05;100.00;58721.66;5109604;27;20052;-66
2022/03/10 05:32:48;;;;;;;23.48;12.40;;;;;;;-147.05;100.00;58721.66;5109326;27;20039;-67
2022/03/10 05:35:16;;;;;;;24.13;13.13;;;;;;;-147.05;100.00;58721.66;5108589;28;20040;-67
2022/03/10 05:37:48;;;;;;;21.05;12.27;;;;;;;-147.05;100.00;58721.66;5110883;27;20038;-68
2022/03/10 05:40:18;;;;;;;26.20;13.25;;;;;;;-147.05;100.00;58721.66;5109200;28;20514;-67
2022/03/10 05:42:47;;;;;;;26.55;12.77;;;;;;;-147.05;100.00;58721.66;5110693;28;20043;-66
2022/03/10 05:45:20;;;;;;;28.30;13.30;;;;;;;-147.05;100.00;58721.66;5110477;27;20087;-67
2022/03/10 05:47:55;;;;;;;25.25;12.35;;;;;;;-147.05;100.00;58721.66;5110760;28;20044;-66
2022/03/10 05:50:25;;;;;;;26.10;12.25;;;;;;;-147.05;100.00;58721.66;5108964;28;20474;-66
2022/03/10 05:52:53;;;;;;;26.08;12.80;;;;;;;-147.05;100.00;58721.66;5110343;28;20070;-69
2022/03/10 05:55:23;;;;;;;21.98;11.57;;;;;;;-147.05;100.00;58721.66;5103818;27;20040;-65
2022/03/10 05:57:50;;;;;;;22.63;11.90;;;;;;;-147.05;100.00;58721.66;5106605;28;20465;-66
2022/03/10 06:00:18;;;;;;;23.23;11.65;;;;;;;-147.05;100.00;58721.66;5108140;28;20044;-66
2022/03/10 06:02:47;;;;;;;23.30;12.48;;;;;;;-147.05;100.00;58721.66;5119240;27;20491;-65
2022/03/10 06:05:16;;;;;;;27.60;12.70;;;;;;;-147.05;100.00;58721.66;5113885;27;20044;-66
2022/03/10 06:07:43;;;;;;;27.65;11.52;;;;;;;-147.05;100.00;58721.66;5108718;27;20091;-66
2022/03/10 06:10:10;;;;;;;27.52;12.93;;;;;;;-147.05;100.00;58721.66;5110341;27;20424;-66
2022/03/10 06:13:05;;;;;;;21.42;11.30;;;;;;;-147.05;100.00;58721.66;5110818;28;20036;-67
2022/03/10 06:15:33;;;;;;;27.75;12.00;;;;;;;-147.05;100.00;58721.66;5103779;28;20132;-66
2022/03/10 06:18:00;;;;;;;28.00;12.23;;;;;;;-147.05;100.00;58721.66;5108331;28;20127;-66
2022/03/10 06:20:30;;;;;;;28.92;12.40;;;;;;;-147.05;100.00;58721.66;5109729;27;20040;-67
2022/03/10 06:22:57;;;;;;;25.48;11.52;;;;;;;-147.05;100.00;58721.66;5109417;27;20060;-66
2022/03/10 06:25:25;;;;;;;28.35;12.25;;;;;;;-147.05;100.00;58721.66;5105918;27;20145;-67
2022/03/10 06:27:52;;;;;;;47.13;13.25;;;;;;;-147.05;100.00;58721.66;5112104;28;20044;-66
2022/03/10 06:30:20;;;;;;;37.50;12.32;;;;;;;0.29;59.49;102333.13;5111963;28;20529;-67
2022/03/10 06:32:47;;;;;;;23.05;11.93;;;;;;;0.38;59.18;102336.88;5112294;28;20040;-67
2022/03/10 06:35:14;;;;;;;26.65;12.55;;;;;;;0.45;58.35;102329.38;5110225;28;20040;-67
2022/03/10 06:37:43;;;;;;;24.13;11.38;;;;;;;0.56;58.46;102334.06;5111993;27;20539;-67
2022/03/10 06:40:12;;;;;;;22.25;12.55;;;;;;;0.67;58.11;102340.53;5112430;27;20040;-67
2022/03/10 06:42:39;;;;;;;19.73;11.32;;;;;;;0.80;57.70;102340.94;5111376;27;20047;-67
2022/03/10 06:45:07;;;;;;;24.77;12.32;;;;;;;0.98;57.48;102341.56;5109841;28;20048;-68
2022/03/10 06:47:38;;;;;;;24.00;12.10;;;;;;;1.10;57.45;102340.22;5112042;28;20032;-68
2022/03/10 06:50:06;;;;;;;27.48;12.75;;;;;;;1.18;57.14;102336.13;5110826;28;21033;-67
2022/03/10 06:52:34;;;;;;;24.73;12.20;;;;;;;1.22;57.23;102341.50;5119233;27;20051;-67
2022/03/10 06:55:01;;;;;;;22.85;11.80;;;;;;;1.31;56.81;102343.50;5111386;27;20040;-69
2022/03/10 06:57:28;;;;;;;21.92;12.05;;;;;;;1.42;56.48;102350.78;5111030;28;20036;-67
2022/03/10 06:59:55;;;;;;;26.00;11.93;;;;;;;1.53;56.35;102350.25;5107845;27;20525;-68
2022/03/10 07:02:23;;;;;;;22.63;11.57;;;;;;;1.66;56.31;102358.44;5112563;27;20032;-69
2022/03/10 07:04:50;;;;;;;21.67;11.93;;;;;;;1.79;56.08;102355.38;5112599;27;20075;-69
2022/03/10 07:07:19;;;;;;;18.17;10.52;;;;;;;1.94;55.46;102356.69;5113001;27;20101;-70
2022/03/10 07:09:46;;;;;;;21.10;10.60;;;;;;;2.12;55.24;102353.75;5112574;27;20106;-69
2022/03/10 07:12:13;;;;;;;35.88;12.77;;;;;;;2.29;54.65;102357.69;5113528;28;20028;-69
2022/03/10 07:14:40;;;;;;;21.23;11.90;;;;;;;2.46;54.21;102359.88;5105384;28;20079;-68
2022/03/10 07:17:08;;;;;;;30.80;11.70;;;;;;;2.64;54.16;102369.94;5113857;28;20040;-70
2022/03/10 07:19:35;;;;;;;22.38;11.77;;;;;;;2.80;54.00;102366.88;5113896;27;20101;-67
2022/03/10 07:22:03;;;;;;;22.15;11.75;;;;;;;2.99;53.62;102379.50;5113742;27;20129;-68
2022/03/10 07:24:31;;;;;;;22.58;11.68;;;;;;;3.15;53.28;102368.66;5111935;28;20056;-69
2022/03/10 07:26:59;;;;;;;25.45;11.75;;;;;;;3.34;52.78;102364.75;5113750;27;20567;-68
2022/03/10 07:29:26;;;;;;;22.42;11.80;;;;;;;3.50;52.22;102365.13;5113414;27;20507;-69
2022/03/10 07:31:56;;;;;;;24.13;11.10;;;;;;;3.65;51.85;102362.88;5113219;27;20071;-70
2022/03/10 07:34:23;;;;;;;20.17;11.50;;;;;;;3.81;51.20;102369.31;5113665;28;20051;-69
2022/03/10 07:36:50;;;;;;;21.17;11.38;;;;;;;3.97;51.11;102361.84;5112999;27;20124;-68
2022/03/10 07:39:17;;;;;;;19.60;11.10;;;;;;;4.10;50.70;102358.63;5113941;27;20105;-69
2022/03/10 07:41:45;;;;;;;21.63;11.10;;;;;;;4.25;50.28;102349.34;5112857;28;20043;-69
2022/03/10 07:44:12;;;;;;;20.05;11.35;;;;;;;4.40;50.33;102349.63;5114024;28;20045;-69
2022/03/10 07:46:39;;;;;;;25.65;11.73;;;;;;;4.55;50.13;102354.28;5113303;27;20115;-69
2022/03/10 07:49:08;;;;;;;24.02;11.10;;;;;;;4.68;49.43;102347.53;5113575;27;20040;-68
2022/03/10 07:51:36;;;;;;;20.50;11.20;;;;;;;4.79;48.75;102352.97;5113334;27;20204;-69
2022/03/10 07:54:03;;;;;;;20.40;12.13;;;;;;;4.92;48.13;102341.91;5112977;27;20502;-70
2022/03/10 07:56:30;;;;;;;19.63;11.68;;;;;;;5.04;48.32;102348.16;5113586;27;20511;-68
2022/03/10 07:58:57;;;;;;;18.60;10.82;;;;;;;5.17;48.51;102341.44;5113476;28;20044;-69
2022/03/10 08:01:24;;;;;;;70.13;15.30;;;;;;;5.32;47.75;102346.88;5112568;27;20520;-68
2022/03/10 08:03:51;;;;;;;24.50;11.38;;;;;;;5.47;48.09;102337.53;5113034;28;20521;-70
2022/03/10 08:06:19;;;;;;;24.27;12.35;;;;;;;5.62;48.10;102342.09;5113301;27;20522;-70
2022/03/10 08:08:46;;;;;;;33.97;12.77;;;;;;;5.77;47.84;102344.06;5113324;27;20813;-69
2022/03/10 08:11:13;;;;;;;20.17;10.88;;;;;;;5.90;47.42;102332.91;5113581;27;20063;-69
2022/03/10 08:13:40;;;;;;;19.52;11.23;;;;;;;6.06;47.23;102333.97;5112941;28;20051;-69
2022/03/10 08:16:08;;;;;;;23.70;12.75;;;;;;;6.20;46.94;102337.66;5113054;27;20502;-69
2022/03/10 08:18:36;;;;;;;19.38;11.52;;;;;;;6.35;46.65;102330.84;5113192;27;20044;-70
2022/03/10 08:21:06;;;;;;;23.25;12.43;;;;;;;6.51;46.85;102327.53;5105983;27;20528;-69
2022/03/10 08:23:33;;;;;;;33.72;13.65;;;;;;;6.70;46.49;102334.69;5112847;27;20490;-69
2022/03/10 08:26:00;;;;;;;18.75;12.25;;;;;;;6.84;46.23;102331.34;5104460;28;20040;-69
2022/03/10 08:28:34;;;;;;;23.40;11.82;;;;;;;7.02;45.98;102321.88;5112423;28;20048;-69
2022/03/10 08:31:04;;;;;;;22.98;12.10;;;;;;;7.18;45.20;102324.59;5112920;27;20429;-68
2022/03/10 08:33:31;;;;;;;23.70;11.82;;;;;;;7.32;44.54;102317.72;5113159;27;20048;-69
2022/03/10 08:35:58;;;;;;;19.98;12.02;;;;;;;7.46;44.67;102325.69;5112789;27;20040;-69
2022/03/10 08:38:25;;;;;;;29.65;13.30;;;;;;;7.63;44.75;102317.06;5113003;28;20048;-69
2022/03/10 08:40:52;;;;;;;21.60;12.18;;;;;;;7.80;44.36;102322.38;5112842;27;20075;-69
2022/03/10 08:43:22;;;;;;;27.30;12.88;;;;;;;7.95;44.47;102317.19;5112568;27;20111;-69
2022/03/10 08:45:49;;;;;;;27.30;12.40;;;;;;;8.12;43.64;102324.25;5112206;27;20095;-69
2022/03/10 08:48:19;;;;;;;22.70;12.35;;;;;;;8.24;43.18;102325.16;5111356;28;20044;-68
2022/03/10 08:50:46;;;;;;;22.75;13.18;;;;;;;8.38;42.66;102314.72;5112079;27;20112;-69
2022/03/10 08:53:13;;;;;;;22.35;11.38;;;;;;;8.50;42.07;102316.53;5112634;27;20040;-69
2022/03/10 08:55:41;;;;;;;23.60;12.98;;;;;;;8.61;42.02;102315.66;5112746;27;20048;-69
2022/03/10 08:58:08;;;;;;;21.05;12.18;;;;;;;8.71;42.35;102314.81;5112109;28;20043;-69
2022/03/10 09:00:37;;;;;;;43.20;14.27;;;;;;;8.84;42.06;102308.69;5112029;27;20119;-69
2022/03/10 09:03:04;;;;;;;19.67;11.65;;;;;;;9.00;42.21;102304.28;5112311;27;20055;-70
2022/03/10 09:05:34;;;;;;;24.95;12.55;;;;;;;9.16;42.17;102299.03;5111253;27;20505;-69
2022/03/10 09:08:03;;;;;;;65.22;15.00;;;;;;;9.33;42.27;102293.75;5112066;28;20040;-69
2022/03/10 09:10:30;;;;;;;38.53;13.20;;;;;;;9.50;42.22;102298.06;5112401;27;20047;-69
2022/03/10 09:12:58;;;;;;;24.73;12.65;;;;;;;9.66;41.21;102296.28;5111958;28;20090;-69
2022/03/10 09:15:27;;;;;;;32.90;13.45;;;;;;;9.77;41.23;102281.31;5112166;28;20066;-69
2022/03/10 09:17:54;;;;;;;24.00;13.15;;;;;;;9.92;40.91;102293.56;5112234;27;20048;-69
2022/03/10 09:20:22;;;;;;;25.70;13.07;;;;;;;10.05;41.05;102283.81;5112370;27;20113;-69
2022/03/10 09:22:49;;;;;;;24.55;12.55;;;;;;;10.22;41.27;102292.53;5111156;28;20117;-69
2022/03/10 09:25:17;;;;;;;27.48;13.63;;;;;;;10.36;40.92;102281.00;5111222;28;20044;-70
2022/03/10 09:27:44;;;;;;;40.08;15.05;;;;;;;10.49;40.01;102277.44;5112092;27;20040;-70
2022/03/10 09:30:13;;;;;;;23.48;13.00;;;;;;;10.63;40.03;102273.84;5111777;27;20111;-69
2022/03/10 09:32:44;;;;;;;24.02;13.90;;;;;;;10.74;39.90;102269.34;5112327;28;20087;-69
2022/03/10 09:35:15;;;;;;;28.33;13.48;;;;;;;10.92;40.09;102272.72;5111431;27;20044;-69
2022/03/10 09:37:44;;;;;;;27.00;13.40;;;;;;;11.05;39.98;102265.56;5112139;27;20045;-69
2022/03/10 09:40:11;;;;;;;23.33;13.07;;;;;;;11.18;39.29;102267.22;5111758;27;20482;-69
2022/03/10 09:42:38;;;;;;;29.10;12.85;;;;;;;11.28;37.52;102268.88;5111587;27;20036;-70
2022/03/10 09:45:09;;;;;;;23.90;13.73;;;;;;;11.33;37.79;102266.16;5110260;27;20209;-69
2022/03/10 09:47:39;;;;;;;24.20;12.40;;;;;;;11.43;37.18;102264.28;5111662;28;20044;-69
2022/03/10 09:50:10;;;;;;;40.80;13.40;;;;;;;11.54;37.51;102264.19;5111922;28;20047;-69
2022/03/10 09:52:39;;;;;;;24.80;13.05;;;;;;;11.68;36.96;102266.66;5111102;28;20062;-69
2022/03/10 09:55:08;;;;;;;24.88;13.30;;;;;;;11.80;36.90;102255.94;5111239;27;20051;-69
2022/03/10 09:57:42;;;;;;;21.60;12.43;;;;;;;11.96;36.70;102261.88;5111807;28;20101;-69
2022/03/10 10:00:12;;;;;;;22.45;12.38;;;;;;;12.07;36.17;102256.50;5112896;28;20053;-70
2022/03/10 10:02:44;;;;;;;27.42;13.23;;;;;;;12.21;36.86;102264.22;5115204;27;20188;-69
2022/03/10 10:05:30;;;;;;;23.95;13.25;;;;;;;12.37;36.31;102257.78;5114425;27;20080;-70
2022/03/10 10:08:13;;;;;;;20.60;12.82;;;;;;;12.47;35.59;102258.53;5114448;28;20044;-68
2022/03/10 10:10:49;;;;;;;20.80;12.70;;;;;;;12.49;34.83;102261.16;5108876;28;20116;-70
2022/03/10 10:13:37;;;;;;;24.15;12.38;;;;;;;12.52;34.75;102254.03;5114791;27;20071;-69
2022/03/10 10:16:09;;;;;;;45.80;14.95;;;;;;;12.62;35.81;102243.31;5110590;28;20810;-69
2022/03/10 10:18:38;;;;;;;23.52;12.32;;;;;;;12.80;35.76;102256.25;5107030;28;20055;-70
2022/03/10 10:21:15;;;;;;;21.85;12.70;;;;;;;13.02;34.77;102254.09;5114834;27;20293;-69
2022/03/10 10:23:42;;;;;;;22.15;12.52;;;;;;;13.18;35.15;102253.78;5114568;27;20448;-69
2022/03/10 10:26:12;;;;;;;56.65;15.00;;;;;;;13.35;35.22;102245.53;5114269;27;20798;-69
2022/03/10 10:28:50;;;;;;;58.05;15.88;;;;;;;13.48;34.78;102247.06;5114322;28;20036;-69
2022/03/10 10:31:24;;;;;;;21.20;12.80;;;;;;;13.61;34.59;102249.47;5114498;28;20488;-68
2022/03/10 10:34:08;;;;;;;21.73;12.18;;;;;;;13.76;33.29;102248.28;5114723;27;20060;-69
2022/03/10 10:36:38;;;;;;;22.80;12.73;;;;;;;13.81;33.55;102243.75;5113874;27;20044;-70
2022/03/10 10:39:17;;;;;;;18.70;12.00;;;;;;;13.87;33.31;102243.63;5114578;28;20098;-69
2022/03/10 10:41:47;;;;;;;42.58;14.30;;;;;;;13.98;33.54;102241.63;5106925;28;20146;-69
2022/03/10 10:44:20;;;;;;;25.35;12.50;;;;;;;14.10;33.72;102235.16;5114671;27;20478;-69
2022/03/10 10:46:55;;;;;;;28.90;14.20;;;;;;;14.14;32.88;102236.81;5114454;27;20040;-70
2022/03/10 10:49:22;;;;;;;;;;;;;;;14.17;31.78;102230.59;5114562;27;20095;-69
2022/03/10 10:51:57;;;;;;;18.02;11.10;;;;;;;14.15;31.02;102229.75;5114295;27;19954;-69
2022/03/10 10:54:28;;;;;;;21.00;12.05;;;;;;;14.14;32.15;102225.34;5114219;28;20059;-70
2022/03/10 10:57:03;;;;;;;22.33;11.88;;;;;;;14.20;31.82;102221.69;5113527;28;20056;-69
2022/03/10 10:59:43;;;;;;;19.48;10.98;;;;;;;14.15;30.48;102219.13;5113309;27;20071;-68
2022/03/10 11:02:16;;;;;;;21.25;12.00;;;;;;;14.12;31.16;102219.19;5113970;27;20040;-69
2022/03/10 11:04:50;;;;;;;22.98;11.90;;;;;;;14.17;31.17;102219.97;5113500;27;20479;-69
2022/03/10 11:07:22;;;;;;;31.23;12.50;;;;;;;14.28;31.99;102225.00;5114488;27;20509;-70
2022/03/10 11:09:54;;;;;;;21.75;11.75;;;;;;;14.41;30.85;102213.22;5111096;28;20119;-69
2022/03/10 11:12:21;;;;;;;21.05;11.85;;;;;;;14.46;30.99;102215.75;5113251;27;20559;-69
2022/03/10 11:14:49;;;;;;;19.02;11.38;;;;;;;14.49;30.02;102210.38;5106572;28;20043;-70
2022/03/10 11:17:18;;;;;;;42.95;14.82;;;;;;;14.56;31.14;102216.38;5114003;27;20040;-69
2022/03/10 11:19:56;;;;;;;24.23;12.75;;;;;;;14.71;30.82;102215.13;5113801;27;20094;-70
2022/03/10 11:22:40;;;;;;;24.42;12.75;;;;;;;14.83;30.85;102211.31;5113433;28;20048;-69
2022/03/10 11:25:44;;;;;;;22.50;12.07;;;;;;;14.98;30.43;102213.53;5113251;27;20113;-69
2022/03/10 11:28:20;;;;;;;21.52;12.00;;;;;;;15.11;30.17;102213.22;5108240;28;20395;-70
2022/03/10 11:30:56;;;;;;;18.38;12.02;;;;;;;15.19;29.72;102209.44;5113192;27;20093;-69
2022/03/10 11:33:35;;;;;;;24.13;12.27;;;;;;;15.29;30.28;102206.53;5114017;27;20047;-70
2022/03/10 11:36:33;;;;;;;21.55;12.82;;;;;;;15.45;30.32;102209.63;5112761;28;20044;-69
2022/03/10 11:39:12;;;;;;;25.38;11.85;;;;;;;15.57;30.25;102205.72;5109631;28;20055;-70
2022/03/10 11:41:50;;;;;;;35.45;12.90;;;;;;;15.67;29.40;102197.41;5110284;27;20056;-69
2022/03/10 11:44:22;;;;;;;22.02;11.93;;;;;;;15.71;28.42;102197.31;5113848;27;20438;-69
2022/03/10 11:46:58;;;;;;;21.13;11.60;;;;;;;15.76;29.92;102188.28;5113078;27;20121;-69
2022/03/10 11:49:39;;;;;;;26.15;13.30;;;;;;;15.84;29.56;102196.06;5113484;27;20040;-70
2022/03/10 11:52:25;;;;;;;23.25;12.40;;;;;;;15.88;29.38;102192.38;5112698;27;20082;-69
2022/03/10 11:55:08;;;;;;;20.77;12.05;;;;;;;15.95;29.12;102179.78;5113367;27;20402;-69
2022/03/10 11:58:04;;;;;;;23.58;12.80;;;;;;;16.06;29.90;102169.66;5113399;27;20084;-70
2022/03/10 12:00:51;;;;;;;20.70;12.20;;;;;;;16.20;29.26;102171.00;5112830;27;20071;-69
2022/03/10 12:03:29;;;;;;;23.42;12.10;;;;;;;16.26;28.96;102165.47;5108882;28;20124;-70
2022/03/10 12:06:07;;;;;;;21.25;11.77;;;;;;;16.34;28.72;102165.22;5113250;27;20105;-69
2022/03/10 12:08:38;;;;;;;24.80;11.95;;;;;;;16.43;28.78;102159.59;5112967;27;20431;-69
2022/03/10 12:11:20;;;;;;;19.40;11.35;;;;;;;16.54;29.16;102157.44;5112496;27;20040;-70
2022/03/10 12:13:47;;;;;;;26.33;12.32;;;;;;;16.61;28.41;102160.75;5110351;28;20046;-69
2022/03/10 12:16:23;;;;;;;28.90;12.57;;;;;;;16.71;29.46;102142.66;5111443;27;20036;-68
2022/03/10 12:18:51;;;;;;;32.35;12.30;;;;;;;16.76;29.47;102143.38;5113033;27;20583;-69
2022/03/10 12:21:24;;;;;;;22.60;12.68;;;;;;;16.84;28.90;102145.75;5112424;27;20040;-69
2022/03/10 12:24:03;;;;;;;21.40;11.98;;;;;;;16.95;29.23;102135.59;5112394;27;20502;-70
2022/03/10 12:26:37;;;;;;;22.17;11.65;;;;;;;17.05;29.43;102133.47;5112587;27;20078;-69
2022/03/10 12:29:08;;;;;;;22.63;11.75;;;;;;;17.13;29.21;102130.53;5112037;27;20074;-69
2022/03/10 12:31:38;;;;;;;19.08;11.25;;;;;;;17.16;28.67;102125.06;5112501;27;20043;-70
2022/03/10 12:34:12;;;;;;;20.67;11.88;;;;;;;17.20;29.19;102122.22;5111322;28;20047;-70
2022/03/10 12:36:51;;;;;;;17.33;10.07;;;;;;;17.29;28.27;102121.03;5112600;27;20044;-70
2022/03/10 12:39:22;;;;;;;18.10;10.30;;;;;;;17.32;28.39;102120.91;5112320;27;20047;-70
2022/03/10 12:41:56;;;;;;;22.00;9.88;;;;;;;17.32;28.60;102120.03;5111860;28;20051;-69
2022/03/10 12:44:25;;;;;;;29.08;10.15;;;;;;;17.34;29.11;102121.72;5105849;27;20040;-69
2022/03/10 12:46:54;;;;;;;24.52;8.77;;;;;;;17.39;29.54;102122.41;5112057;28;20051;-70
2022/03/10 12:49:36;;;;;;;17.88;9.23;;;;;;;17.43;29.49;102116.97;5112204;27;20493;-70
2022/03/10 12:52:14;;;;;;;13.90;8.23;;;;;;;17.42;29.55;102110.75;5111897;28;20127;-70
2022/03/10 12:54:46;;;;;;;13.45;8.57;;;;;;;17.41;30.05;102109.00;5112770;27;20032;-69
2022/03/10 12:57:13;;;;;;;18.55;8.82;;;;;;;17.41;30.22;102108.16;5112181;28;20374;-70
2022/03/10 12:59:42;;;;;;;23.58;8.98;;;;;;;17.43;30.46;102101.81;5112148;28;20040;-70
2022/03/10 13:02:24;;;;;;;17.38;9.55;;;;;;;17.50;30.64;102102.47;5111871;27;20708;-70
2022/03/10 13:05:03;;;;;;;17.13;9.55;;;;;;;17.57;30.49;102103.09;5112690;27;20040;-70
2022/03/10 13:07:35;;;;;;;18.23;10.07;;;;;;;17.57;30.57;102098.59;5111306;28;20047;-69
2022/03/10 13:10:15;;;;;;;25.67;10.27;;;;;;;17.61;30.82;102092.22;5110139;28;20505;-70
2022/03/10 13:12:47;;;;;;;22.23;10.77;;;;;;;17.63;30.44;102093.03;5111043;28;20040;-70
2022/03/10 13:15:24;;;;;;;22.13;10.82;;;;;;;17.64;30.65;102092.13;5112067;27;20054;-70
2022/03/10 13:17:58;;;;;;;19.05;10.23;;;;;;;17.67;30.93;102089.31;5112256;28;20040;-69
2022/03/10 13:20:29;;;;;;;24.98;11.02;;;;;;;17.68;30.78;102083.06;5102266;28;20120;-69
2022/03/10 13:23:00;;;;;;;49.80;25.25;;;;;;;17.73;30.79;102084.69;5111103;28;20047;-71
2022/03/10 13:25:34;;;;;;;26.08;13.82;;;;;;;17.76;29.48;102082.75;5109224;27;20036;-68
2022/03/10 13:28:06;;;;;;;22.60;12.05;;;;;;;17.77;30.28;102078.25;5106644;28;20047;-69